Middle Paxton, Pennsylvania
Current Conditions -  °F | °C
As of 8:56 AM on Wednesday 26 Nov 2014 (Local Time) from KCXY Reporting Station
Moderate Rain Moderate Rain  
Wind Chill: 32°   Ceiling: 800
Heat Index: 36°   Visibility: 4mi
Dew Point: 33°   Wind: 5mph
Humidity: 89%   Direction: 360°N
Pressure: 30.12"   Gusts: NA
Location:  40.4076°N, 76.8769°W
Report Text: KCXY 261356Z 36004KT 4SM RA BR OVC008 02/01 A3012 RMK AO2 PRESRR SLP205 P0008 T00220006
Loading
Personal Weather Stations






























Interactive Weather Map New forecast layout! Learn more

10-Day Weather Forecast

Advertisements
Track Severe Weather on mobile